Time;durP1;ratioP1;P1;durP2;ratioP2;P2;SDS_P1;SDS_P2;PMS_P1;PMS_P2;Temp;Humidity;BMP_temperature;BMP_pressure;BME280_temperature;BME280_humidity;BME280_pressure;Samples;Min_cycle;Max_cycle;Signal;HPM_P1;HPM_P2
2022/06/28 00:01:54;;;;;;;11.45;3.67;;;;;18.50;96753.00;;;;8356561;28;20324;-66
2022/06/28 00:05:57;;;;;;;6.65;4.10;;;;;18.50;96755.00;;;;8355856;28;20275;-69
2022/06/28 00:10:01;;;;;;;5.68;4.50;;;;;18.40;96767.00;;;;8356464;28;20231;-68
2022/06/28 00:16:04;;;;;;;7.18;4.00;;;;;18.30;96761.00;;;;8356710;28;20205;-68
2022/06/28 00:18:34;;;;;;;7.90;4.53;;;;;18.30;96754.00;;;;8355764;28;20216;-68
2022/06/28 00:22:38;;;;;;;11.02;3.95;;;;;18.20;96749.00;;;;8356093;28;20197;-68
2022/06/28 00:26:42;;;;;;;8.40;4.10;;;;;18.20;96754.00;;;;8357403;28;20215;-68
2022/06/28 00:30:45;;;;;;;7.03;4.38;;;;;18.20;96757.00;;;;8355009;28;20201;-69
2022/06/28 00:34:50;;;;;;;11.50;4.20;;;;;18.20;96750.00;;;;8354121;28;20679;-69
2022/06/28 00:39:00;;;;;;;7.28;4.13;;;;;18.20;96761.00;;;;8354551;28;20228;-69
2022/06/28 00:43:03;;;;;;;6.45;4.13;;;;;18.20;96758.00;;;;8354557;28;20319;-68
2022/06/28 00:47:09;;;;;;;5.63;4.32;;;;;18.10;96758.00;;;;8354162;28;20196;-68
2022/06/28 00:51:13;;;;;;;7.63;4.45;;;;;18.00;96757.00;;;;8354972;28;20208;-69
2022/06/28 00:55:17;;;;;;;5.50;4.53;;;;;17.90;96769.00;;;;8354854;28;20201;-69
2022/06/28 00:59:20;;;;;;;7.00;4.53;;;;;17.80;96778.00;;;;8355823;28;20310;-68
2022/06/28 01:03:24;;;;;;;8.75;4.68;;;;;17.80;96791.00;;;;8350483;28;20236;-69
2022/06/28 01:07:29;;;;;;;12.93;4.68;;;;;17.70;96802.00;;;;8353626;28;22078;-67
2022/06/28 01:11:32;;;;;;;9.45;4.72;;;;;17.60;96806.00;;;;8354378;28;20252;-69
2022/06/28 01:15:37;;;;;;;7.50;4.80;;;;;17.60;96803.00;;;;8354712;28;20654;-69
2022/06/28 01:19:40;;;;;;;10.73;4.28;;;;;17.50;96814.00;;;;8351836;28;20231;-69
2022/06/28 01:23:47;;;;;;;7.20;4.50;;;;;17.50;96802.00;;;;8355889;28;20207;-69
2022/06/28 01:27:52;;;;;;;6.28;4.97;;;;;17.50;96801.00;;;;8351694;28;20284;-69
2022/06/28 01:31:55;;;;;;;9.00;4.65;;;;;17.40;96794.00;;;;8354758;28;20284;-68
2022/06/28 01:35:58;;;;;;;9.20;5.03;;;;;17.40;96795.00;;;;8352406;28;20646;-69
2022/06/28 01:40:04;;;;;;;12.00;6.25;;;;;17.30;96798.00;;;;8353157;28;20224;-68
2022/06/28 01:44:10;;;;;;;10.55;5.57;;;;;17.20;96800.00;;;;8349833;28;20663;-68
2022/06/28 01:48:13;;;;;;;9.63;6.63;;;;;17.20;96813.00;;;;8352900;28;20284;-68
2022/06/28 01:52:16;;;;;;;13.18;6.07;;;;;17.10;96814.00;;;;8353741;28;20193;-69
2022/06/28 01:56:21;;;;;;;9.27;5.95;;;;;17.10;96815.00;;;;8345807;28;20200;-69
2022/06/28 02:00:25;;;;;;;11.20;6.28;;;;;17.10;96826.00;;;;8353970;28;20271;-68
2022/06/28 02:04:29;;;;;;;12.35;7.10;;;;;17.10;96818.00;;;;8337315;28;20232;-69
2022/06/28 02:08:34;;;;;;;11.90;7.13;;;;;17.00;96818.00;;;;8347080;28;20197;-68
2022/06/28 02:12:40;;;;;;;11.32;6.97;;;;;17.00;96824.00;;;;8351857;28;20228;-69
2022/06/28 02:16:44;;;;;;;12.45;7.18;;;;;17.00;96819.00;;;;8350920;28;20205;-68
2022/06/28 02:20:48;;;;;;;11.18;6.57;;;;;17.00;96825.00;;;;8353304;28;20683;-68
2022/06/28 02:24:51;;;;;;;11.65;7.68;;;;;16.90;96819.00;;;;8349832;28;20276;-69
2022/06/28 02:28:56;;;;;;;12.38;7.40;;;;;16.80;96817.00;;;;8351907;28;20200;-67
2022/06/28 02:32:59;;;;;;;19.98;9.10;;;;;16.80;96828.00;;;;8353639;28;20231;-69
2022/06/28 02:41:22;;;;;;;17.88;8.02;;;;;16.70;96828.00;;;;8350407;28;20207;-70
2022/06/28 02:45:29;;;;;;;16.95;8.93;;;;;16.70;96834.00;;;;8342865;28;20193;-68
2022/06/28 02:49:32;;;;;;;22.92;9.32;;;;;16.70;96830.00;;;;8351970;28;20311;-66
2022/06/28 02:53:36;;;;;;;18.33;8.18;;;;;16.70;96836.00;;;;8341251;28;20199;-66
2022/06/28 02:57:40;;;;;;;14.60;8.27;;;;;16.60;96833.00;;;;8353152;28;20324;-67
2022/06/28 03:01:44;;;;;;;14.23;7.38;;;;;16.70;96826.00;;;;8418083;22;20251;-69
2022/06/28 03:05:48;;;;;;;17.42;8.50;;;;;16.70;96818.00;;;;8343877;28;20779;-67
2022/06/28 03:09:51;;;;;;;16.88;8.60;;;;;16.60;96820.00;;;;8346558;28;20204;-68
2022/06/28 03:13:55;;;;;;;17.27;9.13;;;;;16.70;96826.00;;;;8344138;28;20201;-67
2022/06/28 03:18:00;;;;;;;14.45;8.50;;;;;16.70;96827.00;;;;8338551;28;20212;-67
2022/06/28 03:22:03;;;;;;;18.42;8.82;;;;;16.70;96832.00;;;;8350457;28;20227;-68
2022/06/28 03:26:07;;;;;;;17.45;8.45;;;;;16.70;96834.00;;;;8352999;28;20832;-68
2022/06/28 03:30:11;;;;;;;16.02;9.00;;;;;16.70;96819.00;;;;8337005;28;20215;-68
2022/06/28 03:34:15;;;;;;;17.88;9.30;;;;;16.70;96818.00;;;;8354937;28;20307;-69
2022/06/28 03:38:18;;;;;;;15.70;9.25;;;;;16.70;96821.00;;;;8357725;28;20237;-69
2022/06/28 03:42:23;;;;;;;15.90;9.00;;;;;16.60;96832.00;;;;8356991;28;20250;-67
2022/06/28 03:46:26;;;;;;;20.60;9.70;;;;;16.60;96828.00;;;;8354219;28;20220;-67
2022/06/28 03:50:31;;;;;;;16.00;9.18;;;;;16.60;96811.00;;;;8355962;28;20228;-69
2022/06/28 03:54:34;;;;;;;14.40;9.00;;;;;16.70;96819.00;;;;8355946;28;20228;-68
2022/06/28 03:58:38;;;;;;;15.38;9.52;;;;;16.70;96820.00;;;;8346590;28;20658;-67
2022/06/28 04:02:43;;;;;;;20.45;10.70;;;;;16.80;96826.00;;;;8352847;28;20254;-69
2022/06/28 04:06:47;;;;;;;20.67;10.68;;;;;16.80;96820.00;;;;8357174;28;20292;-67
2022/06/28 04:11:13;;;;;;;20.10;9.95;;;;;16.80;96826.00;;;;8353166;28;20298;-68
2022/06/28 04:15:14;;;;;;;28.58;10.55;;;;;16.90;96828.00;;;;8354260;28;20570;-67
2022/06/28 04:19:17;;;;;;;22.63;11.13;;;;;17.20;96832.00;;;;8360338;28;20233;-69
2022/06/28 04:23:23;;;;;;;21.23;10.98;;;;;17.60;96835.00;;;;8354993;28;20236;-69
2022/06/28 04:27:26;;;;;;;24.00;10.50;;;;;18.00;96826.00;;;;8356388;28;20643;-69
2022/06/28 04:31:29;;;;;;;15.57;9.73;;;;;18.50;96835.00;;;;8356675;28;20223;-71
2022/06/28 04:35:32;;;;;;;15.73;9.68;;;;;18.70;96833.00;;;;8354839;28;20197;-70
2022/06/28 04:39:37;;;;;;;17.42;9.50;;;;;18.90;96832.00;;;;8356518;28;20255;-69
2022/06/28 04:43:40;;;;;;;17.73;8.35;;;;;19.20;96843.00;;;;8357376;28;20280;-68
2022/06/28 04:47:44;;;;;;;16.08;9.90;;;;;19.40;96833.00;;;;8348753;28;20276;-68
2022/06/28 04:51:47;;;;;;;19.20;9.25;;;;;19.40;96838.00;;;;8356697;28;20666;-69
2022/06/28 04:55:51;;;;;;;18.58;9.45;;;;;19.30;96836.00;;;;8355203;28;20275;-69
2022/06/28 04:59:54;;;;;;;15.27;10.10;;;;;19.30;96830.00;;;;8353387;28;20311;-68
2022/06/28 05:03:58;;;;;;;18.98;10.43;;;;;19.50;96830.00;;;;8353806;28;20589;-68
2022/06/28 05:08:01;;;;;;;19.63;10.57;;;;;19.30;96830.00;;;;8354294;28;20292;-69
2022/06/28 05:12:06;;;;;;;22.70;11.00;;;;;19.40;96827.00;;;;8353759;28;20288;-69
2022/06/28 05:16:09;;;;;;;15.93;10.07;;;;;19.60;96824.00;;;;8352510;28;20204;-69
2022/06/28 05:20:13;;;;;;;17.52;10.45;;;;;19.80;96831.00;;;;8355355;28;20254;-69
2022/06/28 05:24:16;;;;;;;14.90;9.40;;;;;20.00;96825.00;;;;8351236;28;20193;-67
2022/06/28 05:28:20;;;;;;;15.05;9.90;;;;;20.30;96823.00;;;;8356615;28;20209;-68
2022/06/28 05:32:24;;;;;;;11.90;8.77;;;;;20.80;96818.00;;;;8353736;28;20729;-68
2022/06/28 05:36:27;;;;;;;18.30;9.48;;;;;21.20;96831.00;;;;8352929;28;20197;-67
2022/06/28 05:40:30;;;;;;;14.00;9.80;;;;;21.40;96838.00;;;;8354548;28;20605;-68
2022/06/28 05:44:35;;;;;;;12.27;8.82;;;;;21.50;96824.00;;;;8352589;28;20201;-69
2022/06/28 05:48:38;;;;;;;13.73;10.07;;;;;21.50;96840.00;;;;8351809;28;20216;-69
2022/06/28 05:52:42;;;;;;;15.07;9.32;;;;;22.10;96857.00;;;;8354562;28;20205;-68
2022/06/28 05:56:45;;;;;;;12.52;8.60;;;;;22.70;96861.00;;;;8355379;28;20193;-68
2022/06/28 06:00:50;;;;;;;13.10;9.35;;;;;22.70;96865.00;;;;8349548;28;20221;-69
2022/06/28 06:04:54;;;;;;;12.95;8.80;;;;;22.70;96854.00;;;;8349916;28;20229;-69
2022/06/28 06:08:58;;;;;;;11.80;9.63;;;;;22.80;96855.00;;;;8351960;28;20262;-69
2022/06/28 06:13:02;;;;;;;10.05;8.65;;;;;23.20;96847.00;;;;8352945;28;20828;-69
2022/06/28 06:17:06;;;;;;;10.15;8.45;;;;;23.40;96845.00;;;;8351019;28;20193;-69
2022/06/28 06:21:10;;;;;;;10.93;7.68;;;;;23.40;96844.00;;;;8352921;28;20224;-69
2022/06/28 06:25:13;;;;;;;9.68;7.35;;;;;23.30;96844.00;;;;8355574;28;20280;-70
2022/06/28 06:29:16;;;;;;;7.35;6.53;;;;;23.70;96840.00;;;;8352260;28;20209;-68
2022/06/28 06:33:20;;;;;;;6.97;6.28;;;;;24.20;96838.00;;;;8352078;28;20296;-69
2022/06/28 06:37:24;;;;;;;9.73;6.78;;;;;24.40;96835.00;;;;8351519;28;20252;-71
2022/06/28 06:41:27;;;;;;;6.65;5.97;;;;;24.30;96845.00;;;;8357945;28;20808;-69
2022/06/28 06:45:30;;;;;;;7.70;6.68;;;;;23.50;96829.00;;;;8355464;28;20193;-68
2022/06/28 06:49:35;;;;;;;8.32;7.50;;;;;22.70;96822.00;;;;8357579;28;20565;-68
2022/06/28 06:53:38;;;;;;;8.95;7.57;;;;;22.60;96822.00;;;;8359811;28;20279;-69
2022/06/28 06:57:41;;;;;;;12.50;7.35;;;;;23.90;96819.00;;;;8359924;28;20200;-68
2022/06/28 07:01:45;;;;;;;8.88;7.32;;;;;24.60;96833.00;;;;8356853;28;20308;-69
2022/06/28 07:05:50;;;;;;;9.68;7.35;;;;;24.70;96845.00;;;;8359386;28;20236;-67
2022/06/28 07:09:53;;;;;;;8.18;7.35;;;;;24.30;96849.00;;;;8359182;28;20292;-69
2022/06/28 07:13:57;;;;;;;9.20;6.80;;;;;24.20;96853.00;;;;8356210;28;20200;-68
2022/06/28 07:18:01;;;;;;;10.45;6.18;;;;;24.20;96851.00;;;;8356748;28;20205;-67
2022/06/28 07:22:05;;;;;;;7.30;6.55;;;;;23.70;96856.00;;;;8356844;28;20230;-68
2022/06/28 07:26:09;;;;;;;8.23;6.50;;;;;23.40;96863.00;;;;8357295;28;20199;-70
2022/06/28 07:30:13;;;;;;;7.75;6.28;;;;;23.40;96867.00;;;;8357161;28;20211;-70
2022/06/28 07:34:16;;;;;;;8.98;5.95;;;;;23.90;96871.00;;;;8356371;28;20789;-68
2022/06/28 07:38:20;;;;;;;8.00;6.20;;;;;25.00;96869.00;;;;8357435;28;20553;-68
2022/06/28 07:42:24;;;;;;;5.68;5.18;;;;;25.20;96859.00;;;;8352802;28;20673;-68
2022/06/28 07:46:27;;;;;;;6.68;4.82;;;;;25.60;96861.00;;;;8352941;28;20203;-69
2022/06/28 07:54:53;;;;;;;8.70;5.60;;;;;26.70;96863.00;;;;8354580;28;20197;-71
2022/06/28 07:58:56;;;;;;;8.35;5.40;;;;;26.60;96870.00;;;;8355683;28;20658;-69
2022/06/28 08:02:59;;;;;;;5.72;5.10;;;;;26.90;96874.00;;;;8356438;28;20687;-69
2022/06/28 08:07:02;;;;;;;5.63;5.13;;;;;26.40;96867.00;;;;8354459;28;20205;-70
2022/06/28 08:11:07;;;;;;;5.38;4.97;;;;;26.00;96853.00;;;;8356329;28;20219;-71
2022/06/28 08:15:11;;;;;;;4.75;4.38;;;;;26.20;96857.00;;;;8352370;28;20574;-68
2022/06/28 08:19:15;;;;;;;5.32;4.93;;;;;25.90;96856.00;;;;8359388;28;20282;-71
2022/06/28 08:23:18;;;;;;;5.82;5.30;;;;;26.00;96854.00;;;;8354683;28;20559;-70
2022/06/28 08:27:23;;;;;;;6.53;4.80;;;;;25.50;96866.00;;;;8355666;28;20283;-70
2022/06/28 08:31:26;;;;;;;6.15;4.72;;;;;24.70;96864.00;;;;8354538;28;20589;-69
2022/06/28 08:35:29;;;;;;;5.80;5.07;;;;;24.70;96868.00;;;;8355232;28;20223;-68
2022/06/28 08:39:33;;;;;;;5.80;5.30;;;;;25.20;96860.00;;;;8355114;28;20897;-70
2022/06/28 08:43:38;;;;;;;5.05;4.60;;;;;25.40;96846.00;;;;8354176;28;20279;-68
2022/06/28 08:47:42;;;;;;;4.90;4.43;;;;;26.30;96867.00;;;;8353611;28;20193;-69
2022/06/28 08:51:45;;;;;;;5.47;4.95;;;;;26.40;96872.00;;;;8353737;28;20201;-69
2022/06/28 08:55:50;;;;;;;6.43;4.30;;;;;27.30;96872.00;;;;8352064;28;20228;-71
2022/06/28 08:59:54;;;;;;;6.28;4.30;;;;;27.90;96869.00;;;;8354396;28;20282;-68
2022/06/28 09:04:00;;;;;;;5.78;4.00;;;;;29.00;96872.00;;;;8351607;28;20640;-70
2022/06/28 09:08:04;;;;;;;3.42;3.20;;;;;28.70;96874.00;;;;8353588;28;20193;-68
2022/06/28 09:12:09;;;;;;;3.85;3.55;;;;;28.50;96874.00;;;;8352572;28;20242;-70
2022/06/28 09:16:13;;;;;;;3.42;3.22;;;;;28.70;96884.00;;;;8353452;28;20283;-69
2022/06/28 09:20:17;;;;;;;3.88;3.58;;;;;29.00;96867.00;;;;8353881;28;20312;-69
2022/06/28 09:24:25;;;;;;;3.38;3.17;;;;;29.70;96871.00;;;;8352230;28;20531;-70
2022/06/28 09:28:30;;;;;;;3.50;3.20;;;;;29.80;96872.00;;;;8355288;28;20193;-69
2022/06/28 09:32:36;;;;;;;3.55;3.25;;;;;29.00;96874.00;;;;8357375;28;20288;-70
2022/06/28 09:36:41;;;;;;;3.40;3.20;;;;;28.60;96882.00;;;;8351541;28;20283;-69
2022/06/28 09:40:44;;;;;;;6.35;3.25;;;;;29.00;96879.00;;;;8352799;28;20232;-71
2022/06/28 09:44:52;;;;;;;3.47;3.05;;;;;30.70;96881.00;;;;8349874;28;20211;-69
2022/06/28 09:49:01;;;;;;;2.92;2.72;;;;;30.90;96867.00;;;;8351779;28;20276;-69
2022/06/28 09:53:05;;;;;;;3.47;2.85;;;;;31.50;96858.00;;;;8350851;28;20708;-68
2022/06/28 09:57:14;;;;;;;5.07;2.70;;;;;32.40;96849.00;;;;8349548;28;20200;-68
2022/06/28 10:01:17;;;;;;;3.70;2.47;;;;;33.00;96836.00;;;;8351749;28;20756;-68
2022/06/28 10:05:22;;;;;;;2.78;2.67;;;;;33.10;96827.00;;;;8352858;28;20273;-68
2022/06/28 10:09:26;;;;;;;3.63;2.80;;;;;31.50;96817.00;;;;8353416;28;20669;-70
2022/06/28 10:17:57;;;;;;;4.30;3.33;;;;;28.40;96794.00;;;;8351968;28;20694;-70
2022/06/28 10:22:10;;;;;;;8.68;3.72;;;;;27.40;96770.00;;;;8344316;28;20316;-71
2022/06/28 10:26:22;;;;;;;3.83;3.55;;;;;26.50;96790.00;;;;8357358;28;20200;-69
2022/06/28 10:30:31;;;;;;;7.72;4.60;;;;;25.00;96812.00;;;;8348753;28;20284;-71
2022/06/28 10:34:51;;;;;;;6.00;5.13;;;;;23.00;96785.00;;;;8350523;28;20197;-72
2022/06/28 10:39:21;;;;;;;5.35;4.93;;;;;21.90;96787.00;;;;8349935;28;20937;-70
2022/06/28 10:43:45;;;;;;;9.95;6.13;;;;;21.40;96787.00;;;;8351943;28;20228;-71
2022/06/28 10:48:09;;;;;;;6.40;5.80;;;;;21.20;96783.00;;;;8345836;28;20276;-71
2022/06/28 10:52:15;;;;;;;9.55;6.43;;;;;21.00;96783.00;;;;8352805;28;20267;-72
2022/06/28 10:56:19;;;;;;;6.15;5.55;;;;;21.30;96788.00;;;;8352064;28;20247;-72
2022/06/28 11:00:26;;;;;;;5.93;5.50;;;;;21.90;96767.00;;;;8348044;28;20229;-71
2022/06/28 11:04:31;;;;;;;7.25;5.22;;;;;22.40;96775.00;;;;8335965;28;20767;-69
2022/06/28 11:08:44;;;;;;;6.03;5.35;;;;;22.80;96779.00;;;;8351471;28;20275;-69
2022/06/28 11:12:48;;;;;;;6.03;5.43;;;;;23.10;96760.00;;;;8350294;28;20272;-69
2022/06/28 11:16:52;;;;;;;6.85;5.00;;;;;23.60;96751.00;;;;8355034;28;20208;-71
2022/06/28 11:20:56;;;;;;;5.57;5.05;;;;;24.40;96733.00;;;;8350402;28;20224;-68
2022/06/28 11:25:01;;;;;;;8.10;4.90;;;;;24.90;96727.00;;;;8354700;28;20232;-69
2022/06/28 11:29:05;;;;;;;5.55;4.63;;;;;25.10;96733.00;;;;8357585;28;20842;-70
2022/06/28 11:33:10;;;;;;;4.80;4.40;;;;;25.20;96723.00;;;;8355590;28;20192;-71
2022/06/28 11:37:14;;;;;;;4.75;4.05;;;;;25.80;96713.00;;;;8357264;28;20200;-69
2022/06/28 11:41:28;;;;;;;5.05;3.40;;;;;26.00;96719.00;;;;8354886;28;20231;-70
2022/06/28 11:45:34;;;;;;;3.50;3.20;;;;;26.50;96722.00;;;;8346466;28;20288;-69
2022/06/28 11:49:37;;;;;;;3.38;3.15;;;;;26.70;96714.00;;;;8355317;28;20236;-69
2022/06/28 11:53:45;;;;;;;3.80;3.50;;;;;27.10;96717.00;;;;8357886;28;20195;-69
2022/06/28 11:58:10;;;;;;;3.50;3.28;;;;;27.80;96721.00;;;;8357158;28;20250;-69
2022/06/28 12:02:39;;;;;;;3.60;3.40;;;;;28.40;96726.00;;;;8352370;28;20299;-70
2022/06/28 12:06:43;;;;;;;3.75;3.38;;;;;28.60;96726.00;;;;8350871;28;20258;-70
2022/06/28 12:10:47;;;;;;;3.20;2.92;;;;;28.90;96724.00;;;;8353546;28;20193;-68
2022/06/28 12:14:56;;;;;;;4.63;3.33;;;;;29.00;96724.00;;;;8353808;28;20199;-69
2022/06/28 12:19:02;;;;;;;4.28;3.30;;;;;29.50;96724.00;;;;8357218;28;20200;-71
2022/06/28 12:23:11;;;;;;;3.08;2.90;;;;;29.90;96727.00;;;;8357383;28;20217;-70
2022/06/28 12:27:15;;;;;;;3.28;3.00;;;;;30.70;96723.00;;;;8355432;28;20196;-70
2022/06/28 12:31:18;;;;;;;4.95;2.90;;;;;30.50;96716.00;;;;8358258;28;20691;-70
2022/06/28 12:35:23;;;;;;;3.20;3.00;;;;;30.40;96724.00;;;;8350565;28;20651;-68
2022/06/28 12:39:26;;;;;;;3.53;2.72;;;;;30.80;96725.00;;;;8346169;28;20283;-68
2022/06/28 12:43:30;;;;;;;3.15;2.95;;;;;30.50;96715.00;;;;8355278;28;20299;-69
2022/06/28 12:47:35;;;;;;;3.22;2.92;;;;;30.90;96705.00;;;;8351755;28;20744;-69
2022/06/28 12:51:40;;;;;;;4.05;3.22;;;;;30.40;96710.00;;;;8351951;28;20209;-68
2022/06/28 12:55:43;;;;;;;3.17;2.97;;;;;29.60;96696.00;;;;8354879;28;20209;-68
2022/06/28 12:59:46;;;;;;;3.25;3.05;;;;;29.40;96698.00;;;;8355403;28;20227;-69
2022/06/28 13:03:52;;;;;;;3.10;2.90;;;;;29.30;96699.00;;;;8352270;28;20239;-69
2022/06/28 13:07:57;;;;;;;4.32;3.13;;;;;29.00;96677.00;;;;8354502;28;20201;-68
2022/06/28 13:12:00;;;;;;;3.20;3.00;;;;;29.10;96673.00;;;;8353781;28;20208;-68
2022/06/28 13:16:04;;;;;;;3.72;3.15;;;;;29.90;96655.00;;;;8353225;28;20756;-69
2022/06/28 13:20:18;;;;;;;3.63;2.92;;;;;30.30;96654.00;;;;8354075;28;20208;-69
2022/06/28 13:24:35;;;;;;;3.00;2.90;;;;;30.60;96652.00;;;;8346146;28;20225;-69
2022/06/28 13:28:39;;;;;;;3.30;3.10;;;;;30.40;96656.00;;;;8357143;28;20570;-68
2022/06/28 13:32:42;;;;;;;3.40;3.17;;;;;30.30;96656.00;;;;8354071;28;20214;-68
2022/06/28 13:36:45;;;;;;;3.42;3.13;;;;;30.40;96652.00;;;;8350679;28;20296;-70
2022/06/28 13:40:50;;;;;;;4.28;2.90;;;;;30.90;96649.00;;;;8353183;28;20751;-69
2022/06/28 13:44:53;;;;;;;3.28;3.03;;;;;31.00;96650.00;;;;8352632;28;20912;-70
2022/06/28 13:48:57;;;;;;;5.13;3.03;;;;;31.30;96645.00;;;;8350391;28;20208;-67
2022/06/28 13:53:02;;;;;;;5.25;3.42;;;;;31.60;96653.00;;;;8352582;28;20207;-68
2022/06/28 13:57:07;;;;;;;3.38;3.13;;;;;31.30;96642.00;;;;8349978;28;20635;-68
2022/06/28 14:01:10;;;;;;;4.40;3.30;;;;;31.30;96641.00;;;;8352339;28;20197;-68
2022/06/28 14:05:14;;;;;;;3.63;3.38;;;;;31.50;96640.00;;;;8354976;28;20307;-68
2022/06/28 14:09:19;;;;;;;4.18;3.67;;;;;32.00;96630.00;;;;8350570;28;20219;-68
2022/06/28 14:13:25;;;;;;;6.43;3.38;;;;;32.80;96624.00;;;;8351827;28;20232;-68
2022/06/28 14:17:28;;;;;;;3.30;3.10;;;;;33.40;96612.00;;;;8354344;28;20206;-68
2022/06/28 14:21:31;;;;;;;5.53;3.15;;;;;33.40;96618.00;;;;8352058;28;20288;-67
2022/06/28 14:25:35;;;;;;;3.70;3.15;;;;;33.20;96605.00;;;;8351521;28;20291;-68
2022/06/28 14:29:39;;;;;;;3.85;3.50;;;;;33.10;96593.00;;;;8355689;28;20204;-68
2022/06/28 14:33:43;;;;;;;3.67;3.40;;;;;33.10;96570.00;;;;8347890;28;20204;-71
2022/06/28 14:37:46;;;;;;;4.13;3.42;;;;;33.00;96566.00;;;;8349384;28;20688;-75
2022/06/28 14:41:49;;;;;;;5.35;3.60;;;;;32.40;96558.00;;;;8347453;28;20263;-70
2022/06/28 14:45:54;;;;;;;3.90;3.60;;;;;32.40;96562.00;;;;8346063;28;20243;-75
2022/06/28 14:49:57;;;;;;;3.67;3.47;;;;;32.40;96571.00;;;;8350032;28;20287;-69
2022/06/28 14:54:00;;;;;;;3.92;3.63;;;;;32.50;96582.00;;;;8350378;28;21029;-67
2022/06/28 14:58:04;;;;;;;4.90;3.40;;;;;32.80;96588.00;;;;8352307;28;20201;-68
2022/06/28 15:02:09;;;;;;;4.07;3.78;;;;;33.00;96586.00;;;;8357919;28;20351;-68
2022/06/28 15:06:14;;;;;;;5.03;3.70;;;;;33.10;96593.00;;;;8357239;28;20224;-68
2022/06/28 15:10:17;;;;;;;3.95;3.65;;;;;33.30;96603.00;;;;8357672;28;20649;-68
2022/06/28 15:14:20;;;;;;;3.42;3.13;;;;;33.30;96634.00;;;;8358917;28;20659;-69
2022/06/28 15:18:25;;;;;;;5.20;3.30;;;;;33.30;96635.00;;;;8358155;28;20201;-70
2022/06/28 15:31:08;;;;;;;4.15;3.78;;;;;32.30;96607.00;;;;8334845;28;20200;-69
2022/06/28 15:35:13;;;;;;;3.90;3.60;;;;;32.00;96603.00;;;;8357933;28;20280;-68
2022/06/28 15:39:16;;;;;;;4.18;3.80;;;;;32.10;96595.00;;;;8355825;28;20283;-68
2022/06/28 15:43:24;;;;;;;4.47;3.80;;;;;32.20;96593.00;;;;8356803;28;20667;-70
2022/06/28 15:47:27;;;;;;;3.97;3.55;;;;;32.60;96579.00;;;;8352919;28;20681;-69
2022/06/28 15:51:32;;;;;;;4.63;4.00;;;;;32.80;96576.00;;;;8357000;28;20192;-70
2022/06/28 15:55:35;;;;;;;3.47;3.28;;;;;32.30;96574.00;;;;8357199;28;20200;-68
2022/06/28 15:59:38;;;;;;;3.55;3.25;;;;;31.70;96558.00;;;;8357224;28;20207;-69
2022/06/28 16:03:42;;;;;;;3.85;3.58;;;;;31.40;96556.00;;;;8355046;28;20327;-70
2022/06/28 16:07:46;;;;;;;3.60;3.30;;;;;31.00;96539.00;;;;8356536;28;20288;-69
2022/06/28 16:11:49;;;;;;;4.03;3.63;;;;;30.50;96524.00;;;;8351679;28;20653;-68
2022/06/28 16:15:53;;;;;;;4.32;3.92;;;;;30.30;96527.00;;;;8354184;28;20195;-69
2022/06/28 16:19:56;;;;;;;4.07;3.70;;;;;30.10;96521.00;;;;8356550;28;20201;-67
2022/06/28 16:24:21;;;;;;;3.95;3.45;;;;;29.90;96523.00;;;;8357323;28;20627;-72
2022/06/28 16:28:24;;;;;;;6.55;3.90;;;;;29.90;96510.00;;;;8359724;28;20287;-72
2022/06/28 16:32:28;;;;;;;4.40;4.00;;;;;30.00;96500.00;;;;8346174;28;20208;-73
2022/06/28 16:36:31;;;;;;;3.85;3.55;;;;;29.90;96486.00;;;;8355883;28;20207;-70
2022/06/28 16:40:36;;;;;;;4.78;4.10;;;;;29.90;96475.00;;;;8365187;28;20294;-69
2022/06/28 16:44:39;;;;;;;4.80;3.67;;;;;29.80;96463.00;;;;8354100;28;20227;-68
2022/06/28 16:48:42;;;;;;;4.90;3.60;;;;;29.80;96456.00;;;;8352231;28;20204;-70
2022/06/28 16:52:45;;;;;;;4.30;4.00;;;;;29.70;96465.00;;;;8356544;28;20208;-68
2022/06/28 16:56:50;;;;;;;4.10;3.80;;;;;29.50;96453.00;;;;8356848;28;20221;-68
2022/06/28 17:00:53;;;;;;;5.03;4.50;;;;;29.40;96457.00;;;;8354056;28;20223;-71
2022/06/28 17:04:56;;;;;;;4.43;4.00;;;;;29.20;96450.00;;;;8353604;28;20236;-68
2022/06/28 17:09:00;;;;;;;4.30;3.90;;;;;29.10;96440.00;;;;8353727;28;20308;-67
2022/06/28 17:13:04;;;;;;;6.65;4.00;;;;;28.80;96427.00;;;;8353991;28;20200;-69
2022/06/28 17:17:08;;;;;;;5.47;4.50;;;;;28.40;96426.00;;;;8352974;28;20280;-71
2022/06/28 17:21:11;;;;;;;5.95;3.75;;;;;28.40;96437.00;;;;8353611;28;20224;-69
2022/06/28 17:25:15;;;;;;;4.57;4.18;;;;;28.20;96432.00;;;;8355289;28;20220;-68
2022/06/28 17:29:20;;;;;;;4.68;4.15;;;;;28.10;96431.00;;;;8354352;28;20532;-69
2022/06/28 17:33:23;;;;;;;5.05;3.80;;;;;28.10;96438.00;;;;8354520;28;20288;-69
2022/06/28 17:37:27;;;;;;;4.97;4.15;;;;;28.10;96444.00;;;;8354150;28;20200;-69
2022/06/28 17:41:30;;;;;;;5.43;3.70;;;;;28.10;96438.00;;;;8353550;28;20616;-69
2022/06/28 17:45:35;;;;;;;4.35;3.95;;;;;28.00;96435.00;;;;8352607;28;20224;-71
2022/06/28 17:49:38;;;;;;;4.97;3.97;;;;;27.90;96444.00;;;;8349698;28;20291;-70
2022/06/28 17:53:42;;;;;;;3.80;3.50;;;;;27.80;96442.00;;;;8353394;28;20248;-69
2022/06/28 17:57:45;;;;;;;5.10;4.38;;;;;27.70;96449.00;;;;8353848;28;20314;-69
2022/06/28 18:01:50;;;;;;;6.70;4.20;;;;;27.60;96446.00;;;;8346555;28;20307;-69
2022/06/28 18:05:53;;;;;;;4.15;3.85;;;;;27.30;96447.00;;;;8354134;28;20225;-68
2022/06/28 18:09:57;;;;;;;4.35;4.05;;;;;27.10;96445.00;;;;8353078;28;20650;-69
2022/06/28 18:14:00;;;;;;;4.30;3.90;;;;;26.90;96434.00;;;;8349208;28;20211;-68
2022/06/28 18:18:06;;;;;;;6.95;4.40;;;;;26.80;96432.00;;;;8347721;28;20833;-69
2022/06/28 18:22:09;;;;;;;4.18;3.78;;;;;26.70;96426.00;;;;8351656;28;20591;-68
2022/06/28 18:26:12;;;;;;;4.50;4.10;;;;;26.60;96424.00;;;;8350282;28;20345;-68
2022/06/28 18:30:16;;;;;;;7.75;3.88;;;;;26.50;96416.00;;;;8350008;28;20292;-68
2022/06/28 18:34:21;;;;;;;4.82;4.13;;;;;26.30;96419.00;;;;8349396;28;20741;-68
2022/06/28 18:38:24;;;;;;;4.70;3.83;;;;;26.20;96424.00;;;;8351349;28;20200;-70
2022/06/28 18:42:27;;;;;;;6.78;3.90;;;;;26.20;96434.00;;;;8349897;28;20550;-69
2022/06/28 18:46:30;;;;;;;4.22;3.50;;;;;26.00;96427.00;;;;8345841;28;20690;-70
2022/06/28 18:50:36;;;;;;;7.38;3.53;;;;;25.90;96420.00;;;;8353797;28;20259;-68
2022/06/28 18:54:39;;;;;;;4.47;4.13;;;;;25.80;96430.00;;;;8349379;28;20312;-69
2022/06/28 18:58:42;;;;;;;5.20;4.30;;;;;25.60;96418.00;;;;8349736;28;20637;-69
2022/06/28 19:02:46;;;;;;;7.38;4.15;;;;;25.50;96405.00;;;;8349794;28;20828;-67
2022/06/28 19:06:50;;;;;;;5.22;4.38;;;;;25.40;96396.00;;;;8348266;28;20254;-67
2022/06/28 19:10:53;;;;;;;6.25;4.18;;;;;25.20;96396.00;;;;8350645;28;20858;-69
2022/06/28 19:14:58;;;;;;;4.55;4.13;;;;;25.10;96397.00;;;;8348780;28;20277;-68
2022/06/28 19:19:01;;;;;;;4.78;4.15;;;;;24.90;96389.00;;;;8348219;28;20197;-69
2022/06/28 19:23:05;;;;;;;9.02;4.68;;;;;24.70;96389.00;;;;8348156;28;20632;-68
2022/06/28 19:27:11;;;;;;;5.75;5.05;;;;;24.60;96394.00;;;;8350514;28;20296;-69
2022/06/28 19:31:14;;;;;;;4.65;4.20;;;;;24.50;96389.00;;;;8349958;28;20275;-68
2022/06/28 19:35:18;;;;;;;6.78;4.82;;;;;24.40;96389.00;;;;8351214;28;20259;-68
2022/06/28 19:39:22;;;;;;;8.10;4.78;;;;;24.30;96389.00;;;;8349637;28;20641;-67
2022/06/28 19:43:25;;;;;;;8.15;4.90;;;;;24.20;96393.00;;;;8348119;28;20223;-70
2022/06/28 19:47:30;;;;;;;9.95;4.55;;;;;24.10;96406.00;;;;8353094;28;20887;-73
2022/06/28 19:51:33;;;;;;;6.50;4.85;;;;;24.00;96396.00;;;;8352615;28;20293;-67
2022/06/28 19:55:38;;;;;;;5.88;5.20;;;;;23.90;96387.00;;;;8352794;28;20246;-67
2022/06/28 19:59:41;;;;;;;5.20;4.80;;;;;23.90;96394.00;;;;8355670;28;20565;-67
2022/06/28 20:03:44;;;;;;;5.75;5.15;;;;;23.80;96398.00;;;;8352558;28;20245;-68
2022/06/28 20:07:47;;;;;;;9.50;5.32;;;;;23.80;96399.00;;;;8352171;28;20280;-68
2022/06/28 20:11:52;;;;;;;6.38;4.78;;;;;23.70;96398.00;;;;8354829;28;20904;-70
2022/06/28 20:15:55;;;;;;;7.10;4.80;;;;;23.70;96400.00;;;;8352496;28;20197;-67
2022/06/28 20:19:58;;;;;;;5.60;5.10;;;;;23.70;96399.00;;;;8352879;28;20189;-67
2022/06/28 20:24:02;;;;;;;12.25;5.18;;;;;23.60;96414.00;;;;8353814;28;20228;-68
2022/06/28 20:28:07;;;;;;;6.00;5.38;;;;;23.70;96408.00;;;;8357323;28;20279;-68
2022/06/28 20:32:10;;;;;;;5.60;5.10;;;;;23.70;96410.00;;;;8354216;28;20197;-69
2022/06/28 20:36:13;;;;;;;5.70;5.10;;;;;23.70;96415.00;;;;8352834;28;20656;-68
2022/06/28 20:40:17;;;;;;;5.43;4.80;;;;;23.60;96414.00;;;;8351219;28;20864;-68
2022/06/28 20:44:21;;;;;;;8.35;5.63;;;;;23.70;96423.00;;;;8351908;28;20231;-69